Spottwood, South Dakota
Current Conditions -  °F | °C
As of 2:55 AM on Friday 19 Dec 2014 (Local Time) from KHON Reporting Station
Overcast Overcast  
Wind Chill: -8°   Ceiling: 800
Heat Index: -2°   Visibility: 7mi
Dew Point: -4°   Wind: 12mph
Humidity: 88%   Direction: 180°S
Pressure: 30.11"   Gusts: NA
Location:  44.7205°N, 98.5844°W
Report Text: KHON 190855Z AUTO 18010KT 7SM OVC008 M02/M04 A3011 RMK AO2 SLP215 T10221039 56009
Loading
Personal Weather Stations






























Interactive Weather Map New forecast layout! Learn more

10-Day Weather Forecast

Advertisements
Track Severe Weather on mobile